Time;durP1;ratioP1;P1;durP2;ratioP2;P2;SDS_P1;SDS_P2;PMS_P1;PMS_P2;Temp;Humidity;BMP_temperature;BMP_pressure;BME280_temperature;BME280_humidity;BME280_pressure;Samples;Min_cycle;Max_cycle;Signal;HPM_P1;HPM_P2
2022/03/26 00:01:04;;;;;;;4.37;4.07;;;6.80;45.80;6.10;99340.00;;;;5016034;28;20221;-75
2022/03/26 00:03:35;;;;;;;5.47;3.33;;;6.80;45.80;6.10;99344.00;;;;5035417;28;20228;-76
2022/03/26 00:06:01;;;;;;;9.63;3.37;;;6.70;46.30;6.10;99351.00;;;;5018905;28;20736;-74
2022/03/26 00:08:28;;;;;;;8.37;4.47;;;6.70;46.70;6.10;99342.00;;;;5036338;28;20246;-74
2022/03/26 00:10:54;;;;;;;3.90;3.60;;;6.70;46.10;6.10;99349.00;;;;5036349;28;20199;-75
2022/03/26 00:13:21;;;;;;;3.30;3.10;;;6.70;45.80;6.10;99343.00;;;;5036258;28;20220;-74
2022/03/26 00:15:47;;;;;;;5.53;4.60;;;6.70;45.80;5.90;99329.00;;;;5018933;28;20338;-74
2022/03/26 00:18:17;;;;;;;6.07;3.57;;;6.70;46.40;5.90;99342.00;;;;5036160;28;20199;-75
2022/03/26 00:20:45;;;;;;;3.03;2.77;;;6.60;46.60;5.80;99346.00;;;;5036258;28;20193;-75
2022/03/26 00:23:12;;;;;;;6.83;3.37;;;6.50;46.30;5.70;99346.00;;;;5036147;28;20255;-74
2022/03/26 00:25:39;;;;;;;5.33;3.43;;;6.40;46.10;5.70;99344.00;;;;5036061;28;20201;-75
2022/03/26 00:28:06;;;;;;;2.93;2.50;;;6.40;47.00;5.70;99350.00;;;;5036152;28;20229;-75
2022/03/26 00:30:32;;;;;;;4.97;4.60;;;6.40;47.00;5.70;99337.00;;;;5036303;28;20684;-76
2022/03/26 00:33:01;;;;;;;4.40;4.00;;;6.40;46.80;5.70;99341.00;;;;5035968;28;20277;-75
2022/03/26 00:35:28;;;;;;;5.93;4.77;;;6.30;46.10;5.40;99353.00;;;;5036002;28;20319;-75
2022/03/26 00:37:56;;;;;;;3.77;3.43;;;6.20;45.90;5.50;99351.00;;;;5018624;28;20204;-75
2022/03/26 00:40:25;;;;;;;3.33;3.07;;;6.10;47.00;5.40;99350.00;;;;5035876;28;20199;-75
2022/03/26 00:42:52;;;;;;;5.07;4.20;;;6.20;47.20;5.50;99367.00;;;;5035779;28;20221;-75
2022/03/26 00:45:19;;;;;;;5.47;3.57;;;6.10;48.00;5.40;99359.00;;;;5035724;28;20239;-75
2022/03/26 00:47:45;;;;;;;4.73;3.93;;;6.10;48.50;5.50;99354.00;;;;5035925;28;20207;-75
2022/03/26 00:50:12;;;;;;;3.87;3.57;;;6.10;47.90;5.50;99359.00;;;;5035926;28;20648;-75
2022/03/26 00:52:39;;;;;;;2.43;2.33;;;6.20;47.70;5.50;99352.00;;;;5018511;28;20660;-75
2022/03/26 00:55:10;;;;;;;3.67;3.30;;;6.10;47.80;5.40;99352.00;;;;5037084;28;20220;-75
2022/03/26 00:57:36;;;;;;;2.30;2.20;;;6.00;48.10;5.40;99355.00;;;;5020623;28;20208;-75
2022/03/26 01:00:05;;;;;;;4.00;3.67;;;6.10;48.60;5.50;99349.00;;;;5019523;28;20286;-75
2022/03/26 01:02:33;;;;;;;4.10;3.23;;;6.10;48.50;5.40;99347.00;;;;5036321;28;20221;-75
2022/03/26 01:04:59;;;;;;;5.83;4.63;;;6.00;48.00;5.30;99324.00;;;;5035643;28;20231;-75
2022/03/26 01:07:29;;;;;;;4.70;4.33;;;6.00;48.40;5.20;99331.00;;;;5018520;28;20204;-75
2022/03/26 01:09:56;;;;;;;5.57;4.97;;;5.90;48.50;5.30;99320.00;;;;5017975;28;20228;-75
2022/03/26 01:12:25;;;;;;;3.83;3.47;;;5.90;47.60;5.20;99344.00;;;;5035433;28;20276;-75
2022/03/26 01:14:54;;;;;;;3.67;3.37;;;5.80;47.50;5.10;99333.00;;;;5034297;28;20673;-75
2022/03/26 01:17:20;;;;;;;7.17;2.97;;;5.80;47.70;5.10;99346.00;;;;5017793;28;20209;-75
2022/03/26 01:19:47;;;;;;;3.87;3.13;;;5.80;48.30;5.10;99342.00;;;;5035227;28;20252;-75
2022/03/26 01:22:14;;;;;;;4.00;3.60;;;5.80;48.40;4.90;99341.00;;;;5035143;28;20224;-75
2022/03/26 01:24:43;;;;;;;3.63;3.30;;;5.80;49.40;5.00;99343.00;;;;5035196;28;20229;-75
2022/03/26 01:27:09;;;;;;;7.43;3.53;;;5.80;49.40;5.10;99333.00;;;;5035094;28;20209;-75
2022/03/26 01:29:40;;;;;;;5.10;4.13;;;5.80;49.00;5.10;99317.00;;;;5017590;28;20544;-75
2022/03/26 01:32:09;;;;;;;22.67;4.77;;;5.80;48.90;5.10;99349.00;;;;5017634;28;20320;-75
2022/03/26 01:34:37;;;;;;;4.27;3.87;;;5.80;49.20;5.00;99348.00;;;;5034840;28;20638;-75
2022/03/26 01:37:04;;;;;;;5.27;3.60;;;5.70;49.70;4.80;99349.00;;;;5034931;28;20280;-74
2022/03/26 01:39:31;;;;;;;16.23;3.20;;;5.60;50.20;4.80;99341.00;;;;5017442;28;20667;-75
2022/03/26 01:42:06;;;;;;;2.50;2.37;;;5.60;51.60;4.80;99347.00;;;;5034911;28;20683;-75
2022/03/26 01:44:34;;;;;;;3.70;3.43;;;5.60;51.90;4.80;99337.00;;;;5034947;28;20206;-75
2022/03/26 01:47:05;;;;;;;2.37;2.17;;;5.50;51.20;4.80;99341.00;;;;5034968;28;20231;-76
2022/03/26 01:49:33;;;;;;;4.37;4.00;;;5.50;50.30;4.80;99343.00;;;;5017578;28;20262;-75
2022/03/26 01:52:02;;;;;;;3.43;2.97;;;5.50;50.30;4.80;99327.00;;;;5034719;28;20192;-75
2022/03/26 01:54:32;;;;;;;6.90;3.17;;;5.50;50.20;4.60;99340.00;;;;5017236;28;20208;-75
2022/03/26 01:56:59;;;;;;;4.10;3.10;;;5.40;49.70;4.60;99334.00;;;;5034636;28;20284;-75
2022/03/26 01:59:27;;;;;;;5.43;3.27;;;5.40;50.00;4.70;99332.00;;;;5034804;28;20228;-75
2022/03/26 02:01:54;;;;;;;3.97;3.67;;;5.40;50.40;4.70;99336.00;;;;5034627;28;20212;-73
2022/03/26 02:04:21;;;;;;;3.50;3.20;;;5.40;50.80;4.70;99338.00;;;;5034562;28;20207;-75
2022/03/26 02:06:49;;;;;;;7.00;3.70;;;5.40;50.70;4.60;99339.00;;;;5034522;28;20208;-73
2022/03/26 02:09:16;;;;;;;7.13;3.80;;;5.40;50.90;4.60;99333.00;;;;5017007;28;20209;-74
2022/03/26 02:11:45;;;;;;;5.47;3.90;;;5.40;50.10;4.70;99341.00;;;;5034376;28;20621;-74
2022/03/26 02:14:14;;;;;;;2.03;1.93;;;5.30;49.80;4.60;99333.00;;;;5034312;28;20197;-74
2022/03/26 02:16:43;;;;;;;2.50;2.40;;;5.30;50.80;4.50;99326.00;;;;5034644;28;20216;-76
2022/03/26 02:19:11;;;;;;;4.00;3.70;;;5.20;51.20;4.60;99294.00;;;;5034749;28;20246;-74
2022/03/26 02:21:41;;;;;;;16.10;3.70;;;5.30;51.50;4.50;99330.00;;;;5034468;28;20559;-76
2022/03/26 02:24:09;;;;;;;5.13;3.13;;;5.20;51.00;4.40;99314.00;;;;5034980;28;20287;-76
2022/03/26 02:26:37;;;;;;;6.33;3.73;;;5.20;51.00;4.10;99319.00;;;;5034990;28;20223;-75
2022/03/26 02:29:09;;;;;;;3.57;3.20;;;5.00;50.80;4.30;99326.00;;;;5016946;28;20266;-73
2022/03/26 02:31:36;;;;;;;5.87;4.00;;;5.00;51.80;4.50;99326.00;;;;5034011;28;20218;-74
2022/03/26 02:34:04;;;;;;;7.87;5.13;;;5.10;51.60;4.50;99329.00;;;;5034186;28;20698;-74
2022/03/26 02:36:30;;;;;;;4.33;3.97;;;5.20;51.50;4.40;99326.00;;;;5016681;28;20319;-73
2022/03/26 02:38:58;;;;;;;2.80;2.60;;;5.10;51.20;4.40;99326.00;;;;5034138;28;20207;-74
2022/03/26 02:41:26;;;;;;;5.90;4.00;;;5.10;51.60;4.30;99331.00;;;;5033910;28;20744;-74
2022/03/26 02:43:53;;;;;;;3.13;2.80;;;5.10;51.30;4.40;99332.00;;;;5034187;28;20275;-75
2022/03/26 02:46:20;;;;;;;9.40;3.53;;;5.00;51.60;4.40;99331.00;;;;5033916;28;20348;-74
2022/03/26 02:48:46;;;;;;;4.43;4.13;;;5.00;52.50;4.40;99334.00;;;;5016728;28;20208;-74
2022/03/26 02:51:13;;;;;;;4.50;3.27;;;5.00;51.80;4.40;99328.00;;;;5016327;28;20224;-74
2022/03/26 02:53:42;;;;;;;3.27;2.73;;;5.00;51.50;4.20;99320.00;;;;5033821;28;20219;-74
2022/03/26 02:56:11;;;;;;;4.63;3.73;;;4.90;51.30;4.10;99327.00;;;;5016630;28;20224;-73
2022/03/26 02:58:38;;;;;;;4.47;3.57;;;4.90;51.50;4.10;99332.00;;;;5033942;28;20288;-73
2022/03/26 03:01:04;;;;;;;5.43;4.10;;;4.80;51.60;4.20;99318.00;;;;5033969;28;20271;-74
2022/03/26 03:03:31;;;;;;;3.60;3.30;;;4.90;51.90;4.10;99323.00;;;;5034407;28;20660;-74
2022/03/26 03:05:58;;;;;;;2.03;1.93;;;4.80;51.20;4.00;99327.00;;;;5016376;28;20332;-74
2022/03/26 03:08:25;;;;;;;5.43;3.27;;;4.70;51.10;3.90;99309.00;;;;5033755;28;20219;-74
2022/03/26 03:10:52;;;;;;;6.93;3.33;;;4.60;52.00;3.90;99323.00;;;;5033601;28;20236;-75
2022/03/26 03:13:21;;;;;;;4.43;4.03;;;4.60;52.10;4.00;99314.00;;;;5033799;28;20704;-74
2022/03/26 03:15:49;;;;;;;2.67;2.53;;;4.60;52.10;3.80;99319.00;;;;5034332;28;20208;-74
2022/03/26 03:18:18;;;;;;;7.33;3.40;;;4.60;52.00;3.70;99310.00;;;;5035294;28;20262;-74
2022/03/26 03:20:45;;;;;;;5.83;3.67;;;4.50;52.00;3.70;99311.00;;;;5035940;28;20199;-74
2022/03/26 03:23:13;;;;;;;2.90;2.67;;;4.50;52.60;3.80;99307.00;;;;5045748;28;20196;-75
2022/03/26 03:25:40;;;;;;;3.20;2.93;;;4.50;52.30;3.70;99313.00;;;;5046023;28;20207;-74
2022/03/26 03:28:07;;;;;;;6.27;4.30;;;4.50;52.30;3.80;99316.00;;;;5046180;28;20209;-75
2022/03/26 03:30:34;;;;;;;2.80;2.60;;;4.50;52.90;3.80;99318.00;;;;5045578;28;20271;-74
2022/03/26 03:33:01;;;;;;;4.47;3.77;;;4.50;52.20;3.70;99285.00;;;;5033975;28;20279;-74
2022/03/26 03:35:28;;;;;;;5.87;4.33;;;4.50;51.60;3.60;99312.00;;;;5036101;28;20220;-75
2022/03/26 03:37:54;;;;;;;4.50;4.20;;;4.40;51.40;3.60;99311.00;;;;5021575;28;20636;-75
2022/03/26 03:40:21;;;;;;;10.30;3.33;;;4.30;52.20;3.50;99313.00;;;;5045277;28;20196;-74
2022/03/26 03:42:48;;;;;;;4.03;3.03;;;4.20;52.30;3.50;99326.00;;;;5041013;28;20227;-74
2022/03/26 03:45:15;;;;;;;4.07;3.67;;;4.30;52.90;3.60;99318.00;;;;5037935;28;20200;-75
2022/03/26 03:47:42;;;;;;;2.33;2.23;;;4.30;53.10;3.50;99313.00;;;;5040529;28;20216;-74
2022/03/26 03:50:11;;;;;;;11.43;3.70;;;4.20;53.30;3.30;99310.00;;;;5048938;28;20193;-74
2022/03/26 03:52:38;;;;;;;19.23;5.47;;;4.20;52.70;3.40;99313.00;;;;5048576;28;20207;-75
2022/03/26 03:55:06;;;;;;;3.10;2.50;;;4.10;53.10;3.50;99304.00;;;;5048255;28;20197;-75
2022/03/26 03:57:33;;;;;;;4.03;2.93;;;4.20;53.50;3.40;99279.00;;;;5047586;28;20307;-75
2022/03/26 04:00:02;;;;;;;3.00;2.80;;;4.10;53.70;3.50;99300.00;;;;5039596;28;20288;-74
2022/03/26 04:02:33;;;;;;;7.50;3.73;;;4.30;54.00;3.60;99306.00;;;;5036864;28;20232;-74
2022/03/26 04:05:03;;;;;;;4.57;3.17;;;4.30;54.10;3.60;99300.00;;;;5036843;28;20235;-75
2022/03/26 04:07:30;;;;;;;3.13;2.80;;;4.30;53.30;3.60;99311.00;;;;5036723;28;20231;-74
2022/03/26 04:09:57;;;;;;;4.73;3.27;;;4.30;52.80;3.40;99289.00;;;;5018983;28;20216;-74
2022/03/26 04:12:23;;;;;;;5.77;3.47;;;4.20;52.50;3.30;99291.00;;;;5036253;28;20326;-74
2022/03/26 04:14:50;;;;;;;3.40;3.10;;;4.10;52.90;3.50;99293.00;;;;5036248;28;20215;-74
2022/03/26 04:17:18;;;;;;;3.90;3.53;;;4.10;53.40;3.30;99295.00;;;;5036290;28;20228;-74
2022/03/26 04:19:47;;;;;;;2.70;2.60;;;4.10;53.10;3.30;99311.00;;;;5036224;28;20635;-75
2022/03/26 04:22:16;;;;;;;4.40;4.10;;;4.00;53.30;3.10;99306.00;;;;5036022;28;20224;-74
2022/03/26 04:24:42;;;;;;;3.20;3.00;;;4.00;53.60;3.30;99300.00;;;;5036299;28;20225;-74
2022/03/26 04:27:09;;;;;;;3.80;3.13;;;4.00;53.60;3.20;99298.00;;;;5018674;28;20228;-75
2022/03/26 04:29:36;;;;;;;4.10;2.53;;;4.10;53.80;3.20;99276.00;;;;5036185;28;20282;-75
2022/03/26 04:32:06;;;;;;;5.30;3.87;;;4.00;54.40;3.00;99297.00;;;;5036041;28;20259;-75
2022/03/26 04:34:33;;;;;;;2.70;2.50;;;3.80;54.60;3.00;99298.00;;;;5036028;28;20211;-74
2022/03/26 04:37:00;;;;;;;3.43;3.10;;;3.80;53.60;2.80;99299.00;;;;5018452;28;20225;-74
2022/03/26 04:39:29;;;;;;;2.97;2.80;;;3.60;53.20;2.90;99297.00;;;;5035948;28;20180;-74
2022/03/26 04:41:56;;;;;;;3.03;2.83;;;3.60;54.00;2.90;99289.00;;;;5018318;28;20235;-74
2022/03/26 04:44:22;;;;;;;3.47;3.27;;;3.60;54.50;2.80;99285.00;;;;5018763;28;20295;-74
2022/03/26 04:46:49;;;;;;;3.93;3.63;;;3.60;54.70;2.90;99307.00;;;;5018809;28;20292;-74
2022/03/26 04:49:15;;;;;;;4.47;4.17;;;3.60;54.60;2.80;99312.00;;;;5034423;28;20287;-75
2022/03/26 04:51:42;;;;;;;9.17;3.30;;;3.60;54.50;2.70;99298.00;;;;5019023;28;20280;-75
2022/03/26 04:54:09;;;;;;;6.23;2.83;;;3.60;55.00;2.70;99317.00;;;;5035746;28;20213;-75
2022/03/26 04:56:39;;;;;;;3.70;3.50;;;3.50;55.70;2.70;99333.00;;;;5035575;28;20200;-75
2022/03/26 04:59:07;;;;;;;3.03;2.63;;;3.50;55.20;2.80;99311.00;;;;5035693;28;20335;-75
2022/03/26 05:01:34;;;;;;;4.40;3.30;;;3.60;55.00;3.00;99321.00;;;;5018360;28;20311;-75
2022/03/26 05:04:04;;;;;;;5.50;3.77;;;3.60;54.80;2.90;99289.00;;;;5018307;28;20196;-75
2022/03/26 05:06:30;;;;;;;3.10;2.90;;;3.60;55.50;2.90;99324.00;;;;5035764;28;20254;-75
2022/03/26 05:08:57;;;;;;;3.60;3.30;;;3.60;54.70;2.70;99324.00;;;;5018282;28;20200;-75
2022/03/26 05:11:24;;;;;;;2.93;2.73;;;3.50;55.00;2.80;99316.00;;;;5036074;28;20189;-74
2022/03/26 05:13:51;;;;;;;3.33;3.00;;;3.60;55.60;2.80;99323.00;;;;5035718;28;20223;-75
2022/03/26 05:16:17;;;;;;;3.73;3.27;;;3.60;55.20;2.80;99330.00;;;;5018430;28;20223;-74
2022/03/26 05:18:44;;;;;;;4.83;3.47;;;3.50;54.70;2.80;99315.00;;;;5017844;28;20281;-75
2022/03/26 05:21:14;;;;;;;3.57;3.27;;;3.50;54.80;2.60;99335.00;;;;5018010;28;20617;-74
2022/03/26 05:23:42;;;;;;;3.00;1.80;;;3.40;54.40;2.50;99326.00;;;;5018175;28;20239;-74
2022/03/26 05:26:09;;;;;;;2.93;2.73;;;3.40;55.30;2.70;99326.00;;;;5035444;28;20221;-74
2022/03/26 05:28:38;;;;;;;3.20;2.90;;;3.50;55.70;2.70;99332.00;;;;5035082;28;20285;-75
2022/03/26 05:31:05;;;;;;;5.13;3.97;;;3.50;55.80;2.70;99328.00;;;;5035065;28;20312;-75
2022/03/26 05:33:32;;;;;;;2.90;2.67;;;3.40;56.20;2.80;99331.00;;;;5035214;28;20223;-74
2022/03/26 05:35:59;;;;;;;1.90;1.80;;;3.50;55.80;2.80;99344.00;;;;5018304;28;20233;-74
2022/03/26 05:38:25;;;;;;;3.80;3.23;;;3.50;55.20;2.70;99351.00;;;;5018155;28;20552;-74
2022/03/26 05:40:52;;;;;;;3.73;3.43;;;3.40;55.00;2.60;99340.00;;;;5017651;28;20204;-75
2022/03/26 05:43:21;;;;;;;4.80;4.40;;;3.40;55.50;2.80;99354.00;;;;5034905;28;20548;-75
2022/03/26 05:45:51;;;;;;;8.63;3.33;;;3.40;56.00;2.80;99356.00;;;;5035194;28;20210;-74
2022/03/26 05:48:19;;;;;;;2.27;2.07;;;3.50;55.80;2.80;99349.00;;;;5035009;28;20228;-74
2022/03/26 05:50:46;;;;;;;4.07;3.73;;;3.60;55.60;2.80;99350.00;;;;5017658;28;20212;-75
2022/03/26 05:53:14;;;;;;;5.13;3.20;;;3.60;55.80;2.90;99355.00;;;;5017344;28;20232;-74
2022/03/26 05:55:41;;;;;;;3.67;3.37;;;3.60;56.30;2.90;99350.00;;;;5034940;28;20258;-76
2022/03/26 05:58:10;;;;;;;4.83;4.13;;;3.60;56.20;2.90;99353.00;;;;5035368;28;20299;-73
2022/03/26 06:00:37;;;;;;;5.07;3.10;;;3.70;56.50;2.90;99352.00;;;;5017029;28;20208;-75
2022/03/26 06:03:04;;;;;;;3.87;3.30;;;3.70;56.70;2.90;99362.00;;;;5034588;28;20321;-74
2022/03/26 06:05:32;;;;;;;4.50;3.80;;;3.70;56.40;2.90;99376.00;;;;5001815;28;20197;-76
2022/03/26 06:07:58;;;;;;;3.63;2.43;;;3.60;56.10;2.90;99366.00;;;;5017463;28;20597;-74
2022/03/26 06:10:26;;;;;;;3.40;3.17;;;3.70;56.30;3.00;99375.00;;;;5034450;28;20243;-74
2022/03/26 06:12:52;;;;;;;4.80;3.50;;;3.70;56.40;3.10;99380.00;;;;5034661;28;20207;-75
2022/03/26 06:15:19;;;;;;;4.07;2.87;;;3.70;56.30;3.10;99379.00;;;;5017578;28;20503;-75
2022/03/26 06:17:46;;;;;;;3.10;2.90;;;3.80;56.40;3.10;99386.00;;;;5034392;28;20203;-76
2022/03/26 06:20:15;;;;;;;3.27;3.03;;;3.80;55.90;3.10;99388.00;;;;5017052;28;20205;-74
2022/03/26 06:22:42;;;;;;;4.00;3.60;;;3.80;55.50;3.20;99391.00;;;;5034323;28;20306;-75
2022/03/26 06:25:09;;;;;;;2.80;2.57;;;3.90;55.90;3.20;99397.00;;;;5034497;28;20248;-75
2022/03/26 06:27:35;;;;;;;6.90;4.03;;;3.90;56.20;3.30;99402.00;;;;5034460;28;20527;-75
2022/03/26 06:30:06;;;;;;;2.83;2.63;;;4.00;56.10;3.40;99384.00;;;;5034394;28;20296;-75
2022/03/26 06:32:32;;;;;;;3.00;2.80;;;4.10;56.00;3.40;99406.00;;;;5016948;28;20201;-75
2022/03/26 06:34:59;;;;;;;2.90;2.70;;;4.10;56.00;3.50;99405.00;;;;5016922;28;20796;-75
2022/03/26 06:37:28;;;;;;;5.47;4.07;;;4.20;55.80;3.40;99408.00;;;;5034167;28;20200;-74
2022/03/26 06:39:55;;;;;;;5.63;2.27;;;4.20;55.80;3.40;99400.00;;;;5034119;28;20236;-75
2022/03/26 06:42:22;;;;;;;3.50;3.20;;;4.20;55.70;3.60;99410.00;;;;5016578;28;20223;-75
2022/03/26 06:44:51;;;;;;;4.70;4.00;;;4.20;56.00;3.60;99410.00;;;;5033912;28;20306;-75
2022/03/26 06:47:20;;;;;;;4.63;3.37;;;4.40;56.00;3.70;99408.00;;;;5016633;28;20204;-75
2022/03/26 06:49:47;;;;;;;4.67;4.00;;;4.50;56.60;3.90;99413.00;;;;5033792;28;20307;-75
2022/03/26 06:52:16;;;;;;;4.23;3.77;;;4.50;57.00;4.00;99415.00;;;;5016898;28;20225;-74
2022/03/26 06:54:42;;;;;;;5.47;4.30;;;4.60;56.00;4.20;99416.00;;;;5033971;28;20227;-75
2022/03/26 06:57:12;;;;;;;3.13;2.83;;;4.80;55.00;4.20;99416.00;;;;5033984;28;20282;-75
2022/03/26 06:59:40;;;;;;;5.23;4.80;;;4.80;55.20;4.20;99419.00;;;;5033776;28;20231;-75
2022/03/26 07:02:07;;;;;;;4.07;3.73;;;4.90;54.80;4.30;99425.00;;;;5033697;28;20256;-75
2022/03/26 07:04:36;;;;;;;4.10;3.70;;;5.00;54.50;4.40;99427.00;;;;5033644;28;20239;-75
2022/03/26 07:07:03;;;;;;;4.07;3.67;;;5.00;54.30;4.60;99420.00;;;;5033778;28;20283;-75
2022/03/26 07:09:29;;;;;;;2.77;2.60;;;5.20;54.10;4.60;99423.00;;;;5033692;28;20216;-74
2022/03/26 07:11:58;;;;;;;2.70;2.50;;;5.30;54.10;4.70;99409.00;;;;5032862;28;20200;-75
2022/03/26 07:14:27;;;;;;;3.83;3.50;;;5.30;54.10;4.80;99418.00;;;;5033641;28;20251;-74
2022/03/26 07:16:54;;;;;;;4.77;4.37;;;5.50;54.00;5.00;99422.00;;;;5016388;28;20581;-74
2022/03/26 07:19:23;;;;;;;7.83;3.63;;;5.60;53.50;5.00;99398.00;;;;5033602;28;20225;-75
2022/03/26 07:21:49;;;;;;;3.40;3.20;;;5.70;53.30;5.20;99417.00;;;;5033726;28;20304;-74
2022/03/26 07:24:16;;;;;;;2.40;2.20;;;5.80;52.50;5.30;99424.00;;;;5033576;28;20744;-75
2022/03/26 07:26:43;;;;;;;2.83;2.70;;;5.90;52.60;5.50;99438.00;;;;5033573;28;20201;-75
2022/03/26 07:29:09;;;;;;;4.20;3.20;;;6.10;52.50;5.50;99438.00;;;;5033464;28;20204;-74
2022/03/26 07:31:36;;;;;;;3.77;3.47;;;6.20;51.50;5.60;99430.00;;;;5033672;28;20212;-75
2022/03/26 07:34:03;;;;;;;10.00;3.83;;;6.30;51.30;5.80;99435.00;;;;5033268;28;20323;-75
2022/03/26 07:36:29;;;;;;;5.03;3.87;;;6.50;50.60;6.00;99428.00;;;;5033356;28;20270;-75
2022/03/26 07:38:56;;;;;;;4.03;3.73;;;6.60;50.20;6.10;99435.00;;;;5033372;28;20189;-75
2022/03/26 07:41:22;;;;;;;3.50;3.23;;;6.70;49.90;6.20;99436.00;;;;5033268;28;20272;-75
2022/03/26 07:43:49;;;;;;;2.43;2.33;;;6.80;49.40;6.30;99436.00;;;;5033163;28;20191;-75
2022/03/26 07:46:18;;;;;;;10.70;4.20;;;6.90;49.10;6.30;99431.00;;;;5033523;28;20515;-75
2022/03/26 07:48:48;;;;;;;4.07;3.13;;;7.00;48.80;6.40;99441.00;;;;5033413;28;20258;-75
2022/03/26 07:51:15;;;;;;;3.37;3.10;;;7.10;48.80;6.60;99437.00;;;;5033884;28;20208;-76
2022/03/26 07:53:42;;;;;;;4.83;2.77;;;7.20;48.40;6.70;99432.00;;;;5033569;28;20659;-76
2022/03/26 07:56:09;;;;;;;3.50;2.90;;;7.30;47.80;6.80;99445.00;;;;5033420;28;20223;-73
2022/03/26 07:58:35;;;;;;;3.23;2.80;;;7.50;47.80;7.00;99444.00;;;;5033273;28;20204;-74
2022/03/26 08:01:02;;;;;;;3.77;2.63;;;7.60;47.70;7.20;99452.00;;;;5033248;28;20231;-73
2022/03/26 08:03:28;;;;;;;2.80;2.60;;;7.70;47.10;7.30;99448.00;;;;5033001;28;20266;-74
2022/03/26 08:05:56;;;;;;;3.03;1.90;;;7.90;47.30;7.50;99443.00;;;;5033004;28;20223;-75
2022/03/26 08:08:23;;;;;;;3.63;3.03;;;8.10;46.10;7.60;99445.00;;;;5033027;28;20239;-76
2022/03/26 08:10:49;;;;;;;2.83;2.30;;;8.20;46.90;7.70;99416.00;;;;5032950;28;20311;-75
2022/03/26 08:13:17;;;;;;;5.53;3.27;;;8.40;46.20;7.90;99438.00;;;;5033058;28;20189;-75
2022/03/26 08:15:46;;;;;;;10.23;3.47;;;8.50;45.40;8.00;99455.00;;;;5033341;28;20223;-75
2022/03/26 08:18:13;;;;;;;3.37;3.13;;;8.60;46.30;8.20;99446.00;;;;5032759;28;20224;-74
2022/03/26 08:20:39;;;;;;;22.10;2.83;;;8.70;45.20;8.30;99452.00;;;;5032608;28;20543;-74
2022/03/26 08:23:07;;;;;;;2.90;2.70;;;8.90;45.20;8.40;99442.00;;;;5033120;28;20311;-75
2022/03/26 08:28:18;;;;;;;7.57;3.73;;;9.10;43.20;8.60;99453.00;;;;5036199;28;20302;-75
2022/03/26 08:30:44;;;;;;;4.60;3.50;;;9.20;43.90;8.70;99460.00;;;;5036107;28;20248;-75
2022/03/26 08:33:11;;;;;;;4.27;2.83;;;9.30;43.40;8.80;99463.00;;;;5035953;28;20219;-75
2022/03/26 08:35:41;;;;;;;7.57;3.60;;;9.40;43.30;9.00;99452.00;;;;5035889;28;20228;-74
2022/03/26 08:38:09;;;;;;;4.00;3.70;;;9.60;42.70;9.00;99465.00;;;;5036149;28;20246;-75
2022/03/26 08:40:36;;;;;;;3.40;3.10;;;9.70;42.20;9.20;99458.00;;;;5035735;28;20644;-75
2022/03/26 08:43:04;;;;;;;4.93;3.23;;;9.80;42.20;9.40;99469.00;;;;5035752;28;20228;-74
2022/03/26 08:45:34;;;;;;;2.13;2.03;;;9.90;41.80;9.50;99464.00;;;;5035815;28;20224;-75
2022/03/26 08:48:01;;;;;;;4.70;2.30;;;10.00;41.30;9.60;99465.00;;;;5018538;28;20201;-75
2022/03/26 08:50:28;;;;;;;3.43;2.37;;;10.10;41.70;9.70;99470.00;;;;5035536;28;20225;-74
2022/03/26 08:52:54;;;;;;;6.13;4.50;;;10.20;40.20;9.80;99470.00;;;;5035705;28;20235;-75
2022/03/26 08:55:23;;;;;;;3.93;3.63;;;10.30;39.60;9.90;99469.00;;;;5035528;28;20228;-74
2022/03/26 08:57:50;;;;;;;3.43;3.03;;;10.50;39.60;10.00;99442.00;;;;5035572;28;20207;-75
2022/03/26 09:00:20;;;;;;;2.80;2.60;;;10.60;39.70;10.20;99463.00;;;;5035698;28;20212;-75
2022/03/26 09:02:47;;;;;;;5.87;4.63;;;10.70;39.50;10.20;99458.00;;;;5018067;28;20227;-74
2022/03/26 09:05:14;;;;;;;3.97;3.53;;;10.80;39.50;10.30;99464.00;;;;5035469;28;20200;-74
2022/03/26 09:07:42;;;;;;;31.30;3.43;;;10.80;38.60;10.40;99471.00;;;;5035681;28;20196;-75
2022/03/26 09:10:12;;;;;;;5.93;5.23;;;10.90;39.10;10.70;99470.00;;;;5035449;28;20223;-74
2022/03/26 09:12:39;;;;;;;3.87;2.57;;;11.10;38.50;10.70;99467.00;;;;5018113;28;20539;-74
2022/03/26 09:15:08;;;;;;;3.53;3.33;;;11.20;37.70;10.90;99471.00;;;;5035319;28;20205;-74
2022/03/26 09:17:36;;;;;;;3.63;3.23;;;11.40;37.40;10.90;99468.00;;;;5035342;28;20231;-74
2022/03/26 09:20:03;;;;;;;5.10;4.10;;;11.50;36.70;11.00;99471.00;;;;5035232;28;20193;-74
2022/03/26 09:22:30;;;;;;;4.40;4.00;;;11.50;36.60;11.10;99472.00;;;;5035184;28;20235;-75
2022/03/26 09:24:57;;;;;;;4.90;4.43;;;11.70;36.80;11.20;99466.00;;;;5035187;28;20239;-74
2022/03/26 09:27:26;;;;;;;3.53;3.27;;;11.80;36.20;11.40;99467.00;;;;5035338;28;20207;-74
2022/03/26 09:29:53;;;;;;;6.13;4.00;;;11.90;36.10;11.50;99469.00;;;;5017809;28;20287;-75
2022/03/26 09:32:20;;;;;;;4.43;4.10;;;12.00;35.20;11.50;99457.00;;;;5035306;28;20228;-75
2022/03/26 09:34:48;;;;;;;4.00;3.07;;;12.00;35.00;11.50;99452.00;;;;5034218;28;20687;-74
2022/03/26 09:37:17;;;;;;;5.23;3.00;;;12.10;35.30;11.80;99455.00;;;;5017799;28;20340;-74
2022/03/26 09:39:44;;;;;;;11.60;5.07;;;12.30;35.30;11.90;99451.00;;;;5035170;28;20270;-74
2022/03/26 09:42:11;;;;;;;4.30;3.90;;;12.40;34.90;12.00;99444.00;;;;5017668;28;20263;-74
2022/03/26 09:44:38;;;;;;;7.73;3.70;;;12.50;35.30;12.10;99450.00;;;;5034899;28;20239;-74
2022/03/26 09:47:07;;;;;;;5.40;4.03;;;12.60;34.90;12.10;99453.00;;;;5035011;28;20673;-74
2022/03/26 09:49:33;;;;;;;4.30;3.90;;;12.70;34.90;12.40;99450.00;;;;5017586;28;20235;-74
2022/03/26 09:52:05;;;;;;;7.17;4.50;;;12.90;33.90;12.40;99451.00;;;;5035173;28;20321;-74
2022/03/26 09:54:32;;;;;;;3.77;3.47;;;13.00;33.90;12.60;99441.00;;;;5035092;28;20497;-76
2022/03/26 09:56:58;;;;;;;3.80;3.03;;;13.10;33.10;12.70;99443.00;;;;5035048;28;20232;-75
2022/03/26 09:59:27;;;;;;;5.10;4.17;;;13.20;33.30;12.90;99449.00;;;;5035138;28;20280;-75
2022/03/26 10:01:53;;;;;;;10.07;5.37;;;13.50;33.10;13.10;99443.00;;;;5034802;28;20558;-76
2022/03/26 10:04:22;;;;;;;4.10;3.37;;;13.70;33.40;13.30;99448.00;;;;5034817;28;20237;-75
2022/03/26 10:06:51;;;;;;;3.53;2.63;;;13.70;33.10;13.40;99443.00;;;;5034835;28;20224;-75
2022/03/26 10:09:34;;;;;;;3.00;2.73;;;13.90;32.90;13.50;99446.00;;;;5034630;28;20200;-75
2022/03/26 10:12:03;;;;;;;3.43;3.13;;;14.10;32.30;13.70;99439.00;;;;5034656;28;20227;-75
2022/03/26 10:14:46;;;;;;;6.07;5.47;;;14.20;31.80;13.90;99439.00;;;;5034584;28;20197;-74
2022/03/26 10:17:17;;;;;;;7.27;4.60;;;14.30;31.30;14.20;99438.00;;;;5034876;28;20235;-74
2022/03/26 10:19:50;;;;;;;4.73;3.50;;;14.60;31.10;14.30;99437.00;;;;5035036;28;20294;-74
2022/03/26 10:22:34;;;;;;;7.07;4.47;;;14.80;30.90;14.40;99439.00;;;;5034417;28;20277;-74
2022/03/26 10:25:05;;;;;;;4.33;3.97;;;14.90;31.20;14.50;99425.00;;;;5017215;28;20215;-74
2022/03/26 10:27:36;;;;;;;7.13;5.27;;;15.00;29.40;14.60;99435.00;;;;5034554;28;20308;-74
2022/03/26 10:30:05;;;;;;;13.23;6.63;;;15.10;29.40;14.80;99428.00;;;;5034392;28;20212;-74
2022/03/26 10:32:39;;;;;;;7.93;4.90;;;15.20;29.70;15.00;99426.00;;;;5034494;28;20223;-74
2022/03/26 10:35:20;;;;;;;5.60;4.00;;;15.40;29.80;15.10;99430.00;;;;5034283;28;20180;-74
2022/03/26 10:37:53;;;;;;;5.67;3.60;;;15.60;29.00;15.20;99411.00;;;;5034427;28;20792;-75
2022/03/26 10:40:32;;;;;;;4.23;3.73;;;15.70;29.80;15.60;99425.00;;;;5034142;28;20197;-75
2022/03/26 10:43:04;;;;;;;4.83;4.43;;;16.00;29.10;15.80;99430.00;;;;5034261;28;20377;-75
2022/03/26 10:45:33;;;;;;;4.17;3.77;;;16.20;28.50;16.00;99417.00;;;;5034143;28;20204;-75
2022/03/26 10:48:02;;;;;;;4.60;3.73;;;16.40;28.00;16.10;99416.00;;;;5016539;28;20267;-75
2022/03/26 10:50:34;;;;;;;3.87;3.17;;;16.60;26.90;16.30;99416.00;;;;5034047;28;20205;-75
2022/03/26 10:53:09;;;;;;;29.47;5.37;;;16.70;26.80;16.40;99411.00;;;;5016440;28;20659;-74
2022/03/26 10:55:39;;;;;;;6.60;5.90;;;16.80;26.70;16.70;99414.00;;;;5016631;28;20215;-75
2022/03/26 10:58:07;;;;;;;3.63;3.07;;;17.10;26.50;17.00;99417.00;;;;5033937;28;20251;-75
2022/03/26 11:00:34;;;;;;;4.97;4.07;;;17.30;26.30;17.10;99412.00;;;;5034153;28;20632;-74
2022/03/26 11:03:01;;;;;;;5.87;5.30;;;17.50;24.70;17.30;99403.00;;;;5033738;28;20232;-74
2022/03/26 11:05:30;;;;;;;5.53;4.43;;;;;17.50;99399.00;;;;5033762;28;20215;-75
2022/03/26 11:07:59;;;;;;;3.97;3.60;;;17.90;25.00;17.60;99408.00;;;;5032712;28;20259;-75
2022/03/26 11:10:26;;;;;;;8.40;3.33;;;17.90;24.50;17.60;99396.00;;;;5016077;28;20297;-75
2022/03/26 11:12:53;;;;;;;4.93;4.17;;;18.10;24.00;17.70;99399.00;;;;5016355;28;20307;-76